createdAt,value
2019-05-12T00:01:02.709Z,55.10
2019-05-12T00:02:07.667Z,55.30
2019-05-12T00:03:11.705Z,55.50
2019-05-12T00:04:14.653Z,55.60
2019-05-12T00:05:18.565Z,55.60
2019-05-12T00:06:22.744Z,55.70
2019-05-12T00:07:28.227Z,55.80
2019-05-12T00:08:30.709Z,55.90
2019-05-12T00:09:33.711Z,56.10
2019-05-12T00:10:38.707Z,56.30
2019-05-12T00:11:42.553Z,56.40
2019-05-12T00:12:47.922Z,56.50
2019-05-12T00:13:51.365Z,56.50
2019-05-12T00:14:54.297Z,56.60
2019-05-12T00:15:58.421Z,56.80
2019-05-12T00:17:01.331Z,56.80
2019-05-12T00:18:04.225Z,56.80
2019-05-12T00:19:09.184Z,56.70
2019-05-12T00:20:12.457Z,56.70
2019-05-12T00:21:17.659Z,56.70
2019-05-12T00:22:22.482Z,57.00
2019-05-12T00:23:28.695Z,57.30
2019-05-12T00:24:30.820Z,57.60
2019-05-12T00:25:34.412Z,57.70
2019-05-12T00:26:38.318Z,57.70
2019-05-12T00:27:41.296Z,57.60
2019-05-12T00:28:44.620Z,57.50
2019-05-12T00:29:48.581Z,57.30
2019-05-12T00:30:51.685Z,57.20
2019-05-12T00:31:54.831Z,57.00
2019-05-12T00:32:58.129Z,56.80
2019-05-12T00:34:01.123Z,56.70
2019-05-12T00:35:04.386Z,56.70
2019-05-12T00:36:07.995Z,56.80
2019-05-12T00:37:11.060Z,56.80
2019-05-12T00:38:14.425Z,56.80
2019-05-12T00:39:19.132Z,57.10
2019-05-12T00:40:22.061Z,56.80
2019-05-12T00:41:24.995Z,56.80
2019-05-12T00:42:28.854Z,56.60
2019-05-12T00:43:31.813Z,56.40
2019-05-12T00:44:34.761Z,56.20
2019-05-12T00:45:38.513Z,56.10
2019-05-12T00:46:41.933Z,56.00
2019-05-12T00:47:44.852Z,56.00
2019-05-12T00:48:48.266Z,56.00
2019-05-12T00:49:51.257Z,55.90
2019-05-12T00:50:55.398Z,56.00
2019-05-12T01:21:18.314Z,56.20
2019-05-12T01:22:20.749Z,55.70
2019-05-12T01:23:23.767Z,55.90
2019-05-12T01:24:28.227Z,56.00
2019-05-12T01:25:31.742Z,56.00
2019-05-12T01:26:35.738Z,55.90
2019-05-12T01:27:38.633Z,55.70
2019-05-12T01:28:41.888Z,55.60
2019-05-12T01:29:44.789Z,55.60
2019-05-12T01:30:48.048Z,55.50
2019-05-12T01:31:58.937Z,55.50
2019-05-12T01:33:02.216Z,55.50
2019-05-12T01:34:07.962Z,55.50
2019-05-12T01:35:11.120Z,55.40
2019-05-12T01:36:15.102Z,55.60
2019-05-12T01:37:24.048Z,55.60
2019-05-12T01:38:28.732Z,55.60
2019-05-12T01:39:31.838Z,55.90
2019-05-12T01:40:34.772Z,56.20
2019-05-12T01:41:38.923Z,56.40
2019-05-12T01:42:42.319Z,57.10
2019-05-12T01:43:45.218Z,56.60
2019-05-12T01:44:48.251Z,56.50
2019-05-12T01:45:51.220Z,56.70
2019-05-12T01:46:54.424Z,57.00
2019-05-12T01:47:58.990Z,57.20
2019-05-12T01:49:02.229Z,57.40
2019-05-12T01:50:05.339Z,57.70
2019-05-12T01:51:08.496Z,57.90
2019-05-12T01:52:11.429Z,58.20
2019-05-12T01:53:14.441Z,58.30
2019-05-12T01:54:18.886Z,58.40
2019-05-12T01:55:22.433Z,58.60
2019-05-12T01:56:25.341Z,58.50
2019-05-12T01:57:28.906Z,58.50
2019-05-12T01:58:31.911Z,58.50
2019-05-12T01:59:35.156Z,58.50
2019-05-12T02:00:39.147Z,58.50
2019-05-12T02:01:42.224Z,58.50
2019-05-12T02:02:45.148Z,58.40
2019-05-12T02:03:48.398Z,58.20
2019-05-12T02:05:22.409Z,58.10
2019-05-12T02:06:27.678Z,58.00
2019-05-12T02:07:31.061Z,57.70
2019-05-12T02:08:40.112Z,57.40
2019-05-12T02:09:43.045Z,57.30
2019-05-12T02:10:47.998Z,57.10
2019-05-12T02:11:50.677Z,57.00
2019-05-12T02:12:53.601Z,56.90
2019-05-12T02:13:57.995Z,56.90
2019-05-12T02:15:00.960Z,56.80
2019-05-12T02:16:04.161Z,56.80
2019-05-12T02:17:08.800Z,56.60
2019-05-12T02:18:11.773Z,56.60
2019-05-12T02:19:14.726Z,56.60
2019-05-12T02:20:18.602Z,56.40
2019-05-12T02:21:21.801Z,56.40
2019-05-12T02:22:24.719Z,56.40
2019-05-12T02:23:28.152Z,56.50
2019-05-12T02:24:31.169Z,56.50
2019-05-12T02:25:34.449Z,56.50
2019-05-12T02:26:38.292Z,56.50
2019-05-12T02:27:41.381Z,56.60
2019-05-12T02:28:44.331Z,56.60
2019-05-12T02:29:48.026Z,56.50
2019-05-12T02:30:50.993Z,56.50
2019-05-12T02:31:53.990Z,56.70
2019-05-12T02:32:59.040Z,56.70
2019-05-12T02:35:10.202Z,56.80
2019-05-12T02:36:15.083Z,56.70
2019-05-12T02:37:17.897Z,56.80
2019-05-12T02:38:20.818Z,56.90
2019-05-12T02:39:24.884Z,56.90
2019-05-12T02:40:28.015Z,57.00
2019-05-12T02:41:30.955Z,57.30
2019-05-12T02:42:34.922Z,57.50
2019-05-12T02:43:38.478Z,58.10
2019-05-12T02:44:44.285Z,57.50
2019-05-12T02:45:46.116Z,57.20
2019-05-12T02:46:49.065Z,57.20
2019-05-12T02:47:54.346Z,57.30
2019-05-12T02:48:57.524Z,57.30
2019-05-12T02:50:00.355Z,57.40
2019-05-12T02:51:05.562Z,57.60
2019-05-12T02:52:08.434Z,57.50
2019-05-12T02:54:50.584Z,57.30
2019-05-12T02:55:38.072Z,57.30
2019-05-12T02:56:44.947Z,57.50
2019-05-12T02:57:48.814Z,57.60
2019-05-12T02:58:54.375Z,57.70
2019-05-12T02:59:59.358Z,57.90
2019-05-12T03:01:05.487Z,58.10
2019-05-12T03:02:09.012Z,58.30
2019-05-12T03:03:14.793Z,58.40
2019-05-12T03:04:18.955Z,58.50
2019-05-12T03:05:24.818Z,58.60
2019-05-12T03:06:28.312Z,58.80
2019-05-12T03:07:34.634Z,58.80
2019-05-12T03:08:37.726Z,58.80
2019-05-12T03:09:40.837Z,58.90
2019-05-12T03:10:46.441Z,58.90
2019-05-12T03:11:51.304Z,58.90
2019-05-12T03:12:55.013Z,58.90
2019-05-12T03:13:58.058Z,58.80
2019-05-12T03:15:00.988Z,58.70
2019-05-12T03:16:05.079Z,58.60
2019-05-12T03:17:08.156Z,58.50
2019-05-12T03:18:14.656Z,58.50
2019-05-12T03:19:17.063Z,58.40
2019-05-12T03:20:20.191Z,58.30
2019-05-12T03:21:24.484Z,58.30
2019-05-12T03:22:27.434Z,58.30
2019-05-12T03:23:30.470Z,58.40
2019-05-12T03:24:34.263Z,58.50
2019-05-12T03:25:37.510Z,58.60
2019-05-12T03:26:40.495Z,58.70
2019-05-12T03:27:44.431Z,58.80
2019-05-12T03:28:47.945Z,59.10
2019-05-12T03:29:50.878Z,59.20
2019-05-12T03:30:57.867Z,59.10
2019-05-12T03:31:58.522Z,59.10
2019-05-12T03:33:01.714Z,59.00
2019-05-12T03:34:09.461Z,59.00
2019-05-12T03:35:09.685Z,59.00
2019-05-12T03:36:17.316Z,59.10
2019-05-12T03:37:18.832Z,59.20
2019-05-12T03:38:25.102Z,59.30
2019-05-12T03:39:26.273Z,59.40
2019-05-12T03:40:29.194Z,59.50
2019-05-12T03:41:34.850Z,59.50
2019-05-12T03:42:37.512Z,59.50
2019-05-12T03:43:40.729Z,59.50
2019-05-12T03:44:44.562Z,59.50
2019-05-12T03:45:47.877Z,59.50
2019-05-12T03:46:54.189Z,59.60
2019-05-12T03:47:55.875Z,59.80
2019-05-12T03:48:58.774Z,59.80
2019-05-12T03:50:04.535Z,59.90
2019-05-12T03:51:09.780Z,59.90
2019-05-12T03:52:15.309Z,59.90
2019-05-12T03:53:17.820Z,59.90
2019-05-12T03:54:24.143Z,59.90
2019-05-12T03:55:35.587Z,59.90
2019-05-12T03:56:30.339Z,59.90
2019-05-12T03:57:34.485Z,59.90
2019-05-12T03:58:38.329Z,59.90
2019-05-12T03:59:45.020Z,59.80
2019-05-12T04:00:47.262Z,59.90
2019-05-12T04:01:50.189Z,59.90
2019-05-12T04:02:55.608Z,60.00
2019-05-12T04:03:58.437Z,60.20
2019-05-12T04:05:04.945Z,60.40
2019-05-12T04:06:06.045Z,60.60
2019-05-12T04:07:09.497Z,60.70
2019-05-12T04:08:15.699Z,60.80
2019-05-12T04:09:17.806Z,61.00
2019-05-12T04:10:20.777Z,61.20
2019-05-12T04:11:25.025Z,61.50
2019-05-12T04:12:28.201Z,61.60
2019-05-12T04:13:33.954Z,61.70
2019-05-12T04:14:35.872Z,61.60
2019-05-12T04:15:38.782Z,61.60
2019-05-12T04:16:44.430Z,61.60
2019-05-12T04:17:46.411Z,61.70
2019-05-12T04:18:49.397Z,61.90
2019-05-12T04:19:54.832Z,61.80
2019-05-12T04:20:57.420Z,61.80
2019-05-12T04:22:00.341Z,61.70
2019-05-12T04:23:06.062Z,61.60
2019-05-12T04:24:08.342Z,61.70
2019-05-12T04:25:14.628Z,61.60
2019-05-12T04:26:17.260Z,61.60
2019-05-12T04:27:20.430Z,61.60
2019-05-12T04:28:24.577Z,62.60
2019-05-12T04:29:28.137Z,62.60
2019-05-12T04:30:31.062Z,62.00
2019-05-12T04:31:35.178Z,61.70
2019-05-12T04:32:38.161Z,61.50
2019-05-12T04:33:41.545Z,61.40
2019-05-12T04:34:45.264Z,61.30
2019-05-12T04:35:48.191Z,61.20
2019-05-12T04:36:51.210Z,61.10
2019-05-12T04:37:55.340Z,61.20
2019-05-12T04:38:58.575Z,61.60
2019-05-12T04:40:04.938Z,61.80
2019-05-12T04:41:06.298Z,61.80
2019-05-12T04:42:09.351Z,61.80
2019-05-12T04:43:14.665Z,61.50
2019-05-12T04:44:16.870Z,61.40
2019-05-12T04:45:19.831Z,61.30
2019-05-12T04:46:25.262Z,61.30
2019-05-12T04:47:28.121Z,61.10
2019-05-12T04:48:31.031Z,61.00
2019-05-12T04:49:34.709Z,60.80
2019-05-12T04:50:38.419Z,60.60
2019-05-12T04:51:41.363Z,60.40
2019-05-12T04:52:45.261Z,60.10
2019-05-12T04:53:48.234Z,60.00
2019-05-12T04:54:54.986Z,59.90
2019-05-12T04:56:07.557Z,59.80
2019-05-12T04:57:03.983Z,59.90
2019-05-12T04:58:06.362Z,59.90
2019-05-12T04:59:09.561Z,59.80
2019-05-12T05:00:15.749Z,59.70
2019-05-12T05:01:18.499Z,59.70
2019-05-12T05:02:24.622Z,59.70
2019-05-12T05:03:26.491Z,59.60
2019-05-12T05:04:29.679Z,59.60
2019-05-12T05:05:35.386Z,59.50
2019-05-12T05:07:31.392Z,59.70
2019-05-12T05:08:54.425Z,59.90
2019-05-12T05:09:57.542Z,60.90
2019-05-12T05:11:00.581Z,61.30
2019-05-12T05:12:04.683Z,61.30
2019-05-12T05:13:08.143Z,61.20
2019-05-12T05:14:13.519Z,60.90
2019-05-12T05:15:16.028Z,60.70
2019-05-12T05:16:19.368Z,60.50
2019-05-12T05:17:24.433Z,60.30
2019-05-12T05:18:27.479Z,59.90
2019-05-12T05:19:33.805Z,59.90
2019-05-12T05:20:37.643Z,60.00
2019-05-12T05:21:40.946Z,60.00
2019-05-12T05:22:44.182Z,60.10
2019-05-12T05:23:47.191Z,60.20
2019-05-12T05:24:53.496Z,60.30
2019-05-12T05:25:56.020Z,60.20
2019-05-12T05:26:59.025Z,59.90
2019-05-12T05:28:03.902Z,59.90
2019-05-12T05:29:07.303Z,59.90
2019-05-12T05:30:10.394Z,59.90
2019-05-12T05:31:14.002Z,59.70
2019-05-12T05:32:17.119Z,59.70
2019-05-12T05:33:20.164Z,59.50
2019-05-12T05:34:24.101Z,59.30
2019-05-12T05:35:28.958Z,59.10
2019-05-12T05:36:34.621Z,59.20
2019-05-12T05:37:41.498Z,58.90
2019-05-12T05:38:43.714Z,58.80
2019-05-12T05:39:49.570Z,58.90
2019-05-12T05:40:53.982Z,58.80
2019-05-12T05:41:56.610Z,58.70
2019-05-12T05:43:03.649Z,58.70
2019-05-12T05:44:04.748Z,58.60
2019-05-12T05:45:09.810Z,58.40
2019-05-12T05:46:13.807Z,58.50
2019-05-12T05:47:19.877Z,58.60
2019-05-12T05:48:24.007Z,58.50
2019-05-12T05:49:26.507Z,58.40
2019-05-12T05:50:29.824Z,58.40
2019-05-12T05:51:33.540Z,58.30
2019-05-12T05:52:38.775Z,58.20
2019-05-12T05:53:44.001Z,58.20
2019-05-12T05:54:46.354Z,58.10
2019-05-12T05:55:50.420Z,58.10
2019-05-12T05:56:59.523Z,58.30
2019-05-12T05:58:04.498Z,58.50
2019-05-12T05:59:04.803Z,58.60
2019-05-12T06:00:17.561Z,58.60
2019-05-12T06:01:13.889Z,58.50
2019-05-12T06:02:16.982Z,58.40
2019-05-12T06:03:26.149Z,58.30
2019-05-12T06:04:24.931Z,58.20
2019-05-12T06:05:30.783Z,58.00
2019-05-12T06:06:34.197Z,57.80
2019-05-12T06:07:39.149Z,57.80
2019-05-12T06:08:46.174Z,57.90
2019-05-12T06:09:49.194Z,57.90
2019-05-12T06:10:53.902Z,57.90
2019-05-12T06:11:58.958Z,57.80
2019-05-12T06:13:04.026Z,57.80
2019-05-12T06:14:11.522Z,57.70
2019-05-12T06:15:13.539Z,57.80
2019-05-12T06:16:20.328Z,57.90
2019-05-12T06:17:23.617Z,58.10
2019-05-12T06:18:28.968Z,58.10
2019-05-12T06:19:33.762Z,58.30
2019-05-12T06:20:38.093Z,58.50
2019-05-12T06:21:43.787Z,58.70
2019-05-12T06:22:48.736Z,59.00
2019-05-12T06:23:51.431Z,59.30
2019-05-12T06:24:58.792Z,59.60
2019-05-12T06:26:00.363Z,59.80
2019-05-12T06:27:14.428Z,59.90
2019-05-12T06:28:09.064Z,60.10
2019-05-12T06:29:20.273Z,60.00
2019-05-12T06:30:17.524Z,60.00
2019-05-12T06:31:28.276Z,60.10
2019-05-12T06:32:25.471Z,60.10
2019-05-12T06:33:31.868Z,60.30
2019-05-12T06:34:34.347Z,60.40
2019-05-12T06:35:42.031Z,60.10
2019-05-12T06:36:44.079Z,60.10
2019-05-12T06:37:57.450Z,60.00
2019-05-12T06:38:54.122Z,60.10
2019-05-12T06:40:00.530Z,60.00
2019-05-12T06:41:03.643Z,59.80
2019-05-12T06:42:14.256Z,59.50
2019-05-12T06:43:13.867Z,59.30
2019-05-12T06:44:19.498Z,59.30
2019-05-12T06:45:23.497Z,59.40
2019-05-12T06:46:26.619Z,59.40
2019-05-12T06:47:29.811Z,59.30
2019-05-12T06:48:33.326Z,59.30
2019-05-12T06:49:36.622Z,59.30
2019-05-12T06:50:39.658Z,59.30
2019-05-12T06:51:45.541Z,59.40
2019-05-12T06:52:49.115Z,59.60
2019-05-12T06:53:53.459Z,59.60
2019-05-12T06:54:56.870Z,59.50
2019-05-12T06:56:00.279Z,58.90
2019-05-12T06:57:18.828Z,58.70
2019-05-12T06:58:08.174Z,58.70
2019-05-12T06:59:14.046Z,58.60
2019-05-12T07:00:16.511Z,58.40
2019-05-12T07:01:19.897Z,58.50
2019-05-12T07:02:24.688Z,58.50
2019-05-12T07:03:30.820Z,58.90
2019-05-12T07:04:33.944Z,59.10
2019-05-12T07:05:38.625Z,59.10
2019-05-12T07:06:44.100Z,59.30
2019-05-12T07:07:47.038Z,59.20
2019-05-12T07:09:02.360Z,59.40
2019-05-12T07:10:02.323Z,59.30
2019-05-12T07:11:03.703Z,58.90
2019-05-12T07:12:07.093Z,58.40
2019-05-12T07:13:14.874Z,58.40
2019-05-12T07:14:22.518Z,58.30
2019-05-12T07:15:20.384Z,58.20
2019-05-12T07:16:29.748Z,58.20
2019-05-12T07:17:55.671Z,58.20
2019-05-12T07:18:56.475Z,58.00
2019-05-12T07:19:59.516Z,57.90
2019-05-12T07:21:04.094Z,57.60
2019-05-12T07:22:18.900Z,57.50
2019-05-12T07:23:14.207Z,57.50
2019-05-12T07:24:17.392Z,57.50
2019-05-12T07:25:24.509Z,57.50
2019-05-12T07:26:25.395Z,57.30
2019-05-12T07:27:36.807Z,57.30
2019-05-12T07:28:36.356Z,57.20
2019-05-12T07:29:38.451Z,57.20
2019-05-12T07:30:43.901Z,57.20
2019-05-12T07:31:46.658Z,57.30
2019-05-12T07:32:51.185Z,58.30
2019-05-12T07:33:57.907Z,57.70
2019-05-12T07:35:03.767Z,58.00
2019-05-12T07:36:09.487Z,58.00
2019-05-12T07:37:15.161Z,58.00
2019-05-12T07:38:21.344Z,57.80
2019-05-12T07:39:24.232Z,57.50
2019-05-12T07:40:30.141Z,57.40
2019-05-12T07:41:34.967Z,57.30
2019-05-12T07:42:39.579Z,57.20
2019-05-12T07:43:45.277Z,57.30
2019-05-12T07:44:49.239Z,57.10
2019-05-12T07:46:02.067Z,56.80
2019-05-12T07:46:58.545Z,56.70
2019-05-12T07:48:05.605Z,56.60
2019-05-12T07:49:06.597Z,56.70
2019-05-12T07:50:14.848Z,56.80
2019-05-12T07:51:15.589Z,56.60
2019-05-12T07:52:19.907Z,56.30
2019-05-12T07:53:23.371Z,56.00
2019-05-12T07:54:29.348Z,56.00
2019-05-12T07:55:33.806Z,56.20
2019-05-12T07:56:36.687Z,55.90
2019-05-12T07:57:52.024Z,55.70
2019-05-12T07:58:47.539Z,55.90
2019-05-12T07:59:49.571Z,56.00
2019-05-12T08:01:02.584Z,56.20
2019-05-12T08:02:00.806Z,56.00
2019-05-12T08:03:16.171Z,55.60
2019-05-12T08:04:13.477Z,55.40
2019-05-12T08:05:19.848Z,55.50
2019-05-12T08:06:24.322Z,55.30
2019-05-12T08:07:29.903Z,55.40
2019-05-12T08:08:33.866Z,55.60
2019-05-12T08:09:37.281Z,55.60
2019-05-12T08:10:40.351Z,55.70
2019-05-12T08:11:43.513Z,55.80
2019-05-12T08:12:51.063Z,55.70
2019-05-12T08:13:54.215Z,55.70
2019-05-12T08:14:59.387Z,55.80
2019-05-12T08:16:03.737Z,55.80
2019-05-12T08:17:11.967Z,55.80
2019-05-12T08:18:14.143Z,55.60
2019-05-12T08:19:24.013Z,55.60
2019-05-12T08:20:23.857Z,55.60
2019-05-12T08:21:26.817Z,55.40
2019-05-12T08:22:30.756Z,55.20
2019-05-12T08:23:37.611Z,55.00
2019-05-12T08:24:43.255Z,54.80
2019-05-12T08:25:47.484Z,54.70
2019-05-12T08:26:59.720Z,54.80
2019-05-12T08:28:10.175Z,54.80
2019-05-12T08:29:04.393Z,54.70
2019-05-12T08:30:07.759Z,54.60
2019-05-12T08:31:14.095Z,54.60
2019-05-12T08:32:20.109Z,54.40
2019-05-12T08:33:23.866Z,54.30
2019-05-12T08:34:26.951Z,54.40
2019-05-12T08:35:34.717Z,54.20
2019-05-12T08:36:35.371Z,54.10
2019-05-12T08:37:38.495Z,54.40
2019-05-12T08:38:44.233Z,54.50
2019-05-12T08:39:46.857Z,54.60
2019-05-12T08:40:51.258Z,54.70
2019-05-12T08:41:55.120Z,54.90
2019-05-12T08:42:59.396Z,55.10
2019-05-12T08:44:04.568Z,55.10
2019-05-12T08:45:08.406Z,55.20
2019-05-12T08:46:15.729Z,55.30
2019-05-12T08:47:17.976Z,55.30
2019-05-12T08:48:22.326Z,55.40
2019-05-12T08:49:26.060Z,55.20
2019-05-12T08:50:35.784Z,55.20
2019-05-12T08:51:44.280Z,55.00
2019-05-12T08:52:47.829Z,55.00
2019-05-12T08:53:53.910Z,55.10
2019-05-12T08:54:56.348Z,55.30
2019-05-12T08:55:59.403Z,55.50
2019-05-12T08:57:03.895Z,55.50
2019-05-12T08:58:06.967Z,55.30
2019-05-12T08:59:15.592Z,55.30
2019-05-12T09:00:19.128Z,55.50
2019-05-12T09:01:26.638Z,55.50
2019-05-12T09:02:27.260Z,55.10
2019-05-12T09:03:30.691Z,54.80
2019-05-12T09:04:33.969Z,54.50
2019-05-12T09:05:38.382Z,54.50
2019-05-12T09:06:43.451Z,54.40
2019-05-12T09:07:46.884Z,54.50
2019-05-12T09:08:50.228Z,54.70
2019-05-12T09:09:53.451Z,54.70
2019-05-12T09:10:57.118Z,54.70
2019-05-12T09:12:00.336Z,54.80
2019-05-12T09:13:04.302Z,54.70
2019-05-12T09:14:07.540Z,54.40
2019-05-12T09:15:10.733Z,54.40
2019-05-12T09:16:13.984Z,54.70
2019-05-12T09:17:17.225Z,54.40
2019-05-12T09:18:20.337Z,54.40
2019-05-12T09:19:27.126Z,54.30
2019-05-12T09:20:29.315Z,54.40
2019-05-12T09:21:36.562Z,54.20
2019-05-12T09:22:37.177Z,54.00
2019-05-12T09:23:41.571Z,54.00
2019-05-12T09:24:45.512Z,54.70
2019-05-12T09:25:48.542Z,54.00
2019-05-12T09:26:53.704Z,54.20
2019-05-12T09:27:56.979Z,54.20
2019-05-12T09:29:03.310Z,54.10
2019-05-12T09:30:09.692Z,54.00
2019-05-12T09:31:13.977Z,53.90
2019-05-12T09:32:17.022Z,53.60
2019-05-12T09:33:21.389Z,53.60
2019-05-12T09:34:24.870Z,53.70
2019-05-12T09:35:28.683Z,53.70
2019-05-12T09:36:33.831Z,53.90
2019-05-12T09:37:40.390Z,53.90
2019-05-12T09:38:43.866Z,54.00
2019-05-12T09:39:47.809Z,54.20
2019-05-12T09:41:00.597Z,54.40
2019-05-12T09:41:57.283Z,54.50
2019-05-12T09:43:05.232Z,54.50
2019-05-12T09:44:05.154Z,54.60
2019-05-12T09:45:10.487Z,54.80
2019-05-12T09:46:14.417Z,54.70
2019-05-12T09:47:23.544Z,54.50
2019-05-12T09:48:24.534Z,54.40
2019-05-12T09:49:31.360Z,54.30
2019-05-12T09:50:34.220Z,54.00
2019-05-12T09:51:41.147Z,53.90
2019-05-12T09:52:44.161Z,53.40
2019-05-12T09:53:51.476Z,53.30
2019-05-12T09:54:53.494Z,53.50
2019-05-12T09:55:58.524Z,53.60
2019-05-12T09:57:01.407Z,53.50
2019-05-12T09:58:05.012Z,53.20
2019-05-12T09:59:19.095Z,53.10
2019-05-12T10:00:13.721Z,53.00
2019-05-12T10:01:17.113Z,52.90
2019-05-12T10:02:20.976Z,52.70
2019-05-12T10:03:24.635Z,52.60
2019-05-12T10:04:27.681Z,52.50
2019-05-12T10:05:36.534Z,52.60
2019-05-12T10:06:35.890Z,52.20
2019-05-12T10:07:38.984Z,52.00
2019-05-12T10:08:43.425Z,52.00
2019-05-12T10:09:49.147Z,51.80
2019-05-12T10:10:53.631Z,51.90
2019-05-12T10:12:00.559Z,51.90
2019-05-12T10:13:04.295Z,51.70
2019-05-12T10:14:10.787Z,51.60
2019-05-12T10:15:13.536Z,51.70
2019-05-12T10:16:16.607Z,51.70
2019-05-12T10:17:20.387Z,51.70
2019-05-12T10:18:24.556Z,51.60
2019-05-12T10:19:27.822Z,51.50
2019-05-12T10:20:35.239Z,51.40
2019-05-12T10:21:36.165Z,51.30
2019-05-12T10:22:40.185Z,51.30
2019-05-12T10:23:43.835Z,51.00
2019-05-12T10:24:56.037Z,50.80
2019-05-12T10:25:53.774Z,51.20
2019-05-12T10:26:56.883Z,51.00
2019-05-12T10:28:03.021Z,51.10
2019-05-12T10:29:16.344Z,51.10
2019-05-12T10:30:12.364Z,51.00
2019-05-12T10:31:18.168Z,50.90
2019-05-12T10:32:20.032Z,50.80
2019-05-12T10:33:23.354Z,50.90
2019-05-12T10:34:29.299Z,51.20
2019-05-12T10:35:31.375Z,51.20
2019-05-12T10:36:39.060Z,51.50
2019-05-12T10:37:39.469Z,51.60
2019-05-12T10:38:43.410Z,51.30
2019-05-12T10:39:46.538Z,51.30
2019-05-12T10:40:49.619Z,50.90
2019-05-12T10:41:54.628Z,50.60
2019-05-12T10:42:57.667Z,50.50
2019-05-12T10:44:00.667Z,50.70
2019-05-12T10:45:04.311Z,51.50
2019-05-12T10:46:07.397Z,50.80
2019-05-12T10:47:13.358Z,50.40
2019-05-12T10:48:16.235Z,50.20
2019-05-12T10:49:19.276Z,50.30
2019-05-12T10:50:23.399Z,50.30
2019-05-12T10:51:26.555Z,50.90
2019-05-12T10:52:34.364Z,50.40
2019-05-12T10:53:35.606Z,50.40
2019-05-12T10:54:38.982Z,50.20
2019-05-12T10:55:43.929Z,50.10
2019-05-12T10:56:46.952Z,50.30
2019-05-12T10:57:52.967Z,50.30
2019-05-12T10:58:55.477Z,50.00
2019-05-12T10:59:58.504Z,49.60
2019-05-12T11:01:05.197Z,49.70
2019-05-12T11:02:06.465Z,49.30
2019-05-12T11:03:12.334Z,48.70
2019-05-12T11:04:14.741Z,48.50
2019-05-12T11:05:21.117Z,48.70
2019-05-12T11:06:24.306Z,47.70
2019-05-12T11:07:28.394Z,46.20
2019-05-12T11:08:35.219Z,46.90
2019-05-12T11:09:38.560Z,47.40
2019-05-12T11:10:41.565Z,47.80
2019-05-12T11:11:46.960Z,47.90
2019-05-12T11:12:49.644Z,47.70
2019-05-12T11:13:53.823Z,47.70
2019-05-12T11:15:01.388Z,47.70
2019-05-12T11:16:03.827Z,47.70
2019-05-12T11:17:09.567Z,47.70
2019-05-12T11:18:20.521Z,47.40
2019-05-12T11:19:21.967Z,46.90
2019-05-12T11:20:25.364Z,46.40
2019-05-12T11:21:28.392Z,46.80
2019-05-12T11:22:33.307Z,46.40
2019-05-12T11:23:36.335Z,46.40
2019-05-12T11:24:39.580Z,46.50
2019-05-12T11:25:43.996Z,46.10
2019-05-12T11:26:47.067Z,46.20
2019-05-12T11:27:50.117Z,46.10
2019-05-12T11:28:53.883Z,45.90
2019-05-12T11:29:58.060Z,45.90
2019-05-12T11:31:01.114Z,46.30
2019-05-12T11:32:04.105Z,46.30
2019-05-12T11:33:08.708Z,46.40
2019-05-12T11:34:11.761Z,46.10
2019-05-12T11:35:14.758Z,45.80
2019-05-12T11:36:18.231Z,45.90
2019-05-12T11:37:23.121Z,45.60
2019-05-12T11:38:26.141Z,45.40
2019-05-12T11:39:30.606Z,45.50
2019-05-12T11:40:34.943Z,45.40
2019-05-12T11:41:38.766Z,45.00
2019-05-12T11:42:48.410Z,44.60
2019-05-12T11:43:47.630Z,44.20
2019-05-12T11:44:50.728Z,43.90
2019-05-12T11:45:53.773Z,43.70
2019-05-12T11:46:56.852Z,43.80
2019-05-12T11:48:07.937Z,43.50
2019-05-12T11:49:04.666Z,43.50
2019-05-12T11:50:10.104Z,43.80
2019-05-12T11:51:14.430Z,43.70
2019-05-12T11:52:19.431Z,43.30
2019-05-12T11:53:30.356Z,43.30
2019-05-12T11:54:28.086Z,43.50
2019-05-12T11:55:31.891Z,43.50
2019-05-12T11:56:40.240Z,43.80
2019-05-12T11:57:40.479Z,44.50
2019-05-12T11:58:47.354Z,43.90
2019-05-12T12:00:00.942Z,43.60
2019-05-12T12:00:58.611Z,43.40
2019-05-12T12:02:02.430Z,43.10
2019-05-12T12:03:12.722Z,43.00
2019-05-12T12:04:10.359Z,42.80
2019-05-12T12:05:13.994Z,42.50
2019-05-12T12:06:17.063Z,42.00
2019-05-12T12:07:20.095Z,41.80
2019-05-12T12:08:26.555Z,42.00
2019-05-12T12:09:28.940Z,41.70
2019-05-12T12:10:37.522Z,41.40
2019-05-12T12:11:36.952Z,40.90
2019-05-12T12:12:47.131Z,40.50
2019-05-12T12:13:46.202Z,40.20
2019-05-12T12:14:50.502Z,39.70
2019-05-12T12:15:53.775Z,39.10
2019-05-12T12:16:57.271Z,38.50
2019-05-12T12:18:03.985Z,38.10
2019-05-12T12:19:06.000Z,37.60
2019-05-12T12:20:13.919Z,37.40
2019-05-12T12:21:14.552Z,37.20
2019-05-12T12:22:20.387Z,37.30
2019-05-12T12:23:22.506Z,37.80
2019-05-12T12:24:29.965Z,38.20
2019-05-12T12:25:31.120Z,38.30
2019-05-12T12:26:37.106Z,38.40
2019-05-12T12:27:39.120Z,38.60
2019-05-12T12:28:43.521Z,38.70
2019-05-12T12:29:47.107Z,39.20
2019-05-12T12:30:52.462Z,39.40
2019-05-12T12:31:55.700Z,39.40
2019-05-12T12:33:00.277Z,39.50
2019-05-12T12:34:03.935Z,38.90
2019-05-12T12:35:11.004Z,38.90
2019-05-12T12:36:12.015Z,38.90
2019-05-12T12:37:19.018Z,38.90
2019-05-12T12:38:20.148Z,38.90
2019-05-12T12:39:23.763Z,38.70
2019-05-12T12:40:28.808Z,38.30
2019-05-12T12:41:34.031Z,38.30
2019-05-12T12:42:43.932Z,38.30
2019-05-12T12:43:43.271Z,38.40
2019-05-12T12:44:46.384Z,38.30
2019-05-12T12:46:18.118Z,38.30
2019-05-12T12:47:16.211Z,38.60
2019-05-12T12:48:24.710Z,39.00
2019-05-12T12:49:24.198Z,39.20
2019-05-12T12:50:30.488Z,39.40
2019-05-12T12:51:34.263Z,39.60
2019-05-12T12:52:38.679Z,39.90
2019-05-12T12:53:43.755Z,40.30
2019-05-12T12:54:46.908Z,40.70
2019-05-12T12:55:50.429Z,40.80
2019-05-12T12:56:53.938Z,40.80
2019-05-12T12:57:57.068Z,40.40
2019-05-12T12:59:01.792Z,40.20
2019-05-12T13:00:05.704Z,40.20
2019-05-12T13:01:15.085Z,39.70
2019-05-12T13:02:14.216Z,39.80
2019-05-12T13:03:19.845Z,39.60
2019-05-12T13:04:24.862Z,39.50
2019-05-12T13:05:27.941Z,39.50
2019-05-12T13:06:30.970Z,39.60
2019-05-12T13:07:33.971Z,39.40
2019-05-12T13:08:37.312Z,39.60
2019-05-12T13:09:40.823Z,39.80
2019-05-12T13:10:49.474Z,39.90
2019-05-12T13:11:48.729Z,39.90
2019-05-12T13:12:58.653Z,40.00
2019-05-12T13:13:56.595Z,40.10
2019-05-12T13:14:59.623Z,40.30
2019-05-12T13:16:04.084Z,40.20
2019-05-12T13:17:07.535Z,39.60
2019-05-12T13:18:17.933Z,39.50
2019-05-12T13:19:17.191Z,39.30
2019-05-12T13:20:20.347Z,39.50
2019-05-12T13:21:24.318Z,39.40
2019-05-12T13:22:29.619Z,39.20
2019-05-12T13:23:37.898Z,39.60
2019-05-12T13:24:36.972Z,40.00
2019-05-12T13:25:48.435Z,40.10
2019-05-12T13:26:44.775Z,40.20
2019-05-12T13:27:47.921Z,40.30
2019-05-12T13:28:53.324Z,40.40
2019-05-12T13:29:56.371Z,40.50
2019-05-12T13:31:09.057Z,40.90
2019-05-12T13:32:04.577Z,41.10
2019-05-12T13:33:08.871Z,41.20
2019-05-12T13:34:14.402Z,41.30
2019-05-12T13:35:20.316Z,41.30
2019-05-12T13:36:24.182Z,41.20
2019-05-12T13:37:27.371Z,41.10
2019-05-12T13:38:35.638Z,41.20
2019-05-12T13:39:35.308Z,41.30
2019-05-12T13:40:39.463Z,41.60
2019-05-12T13:41:43.704Z,41.80
2019-05-12T13:42:46.904Z,41.90
2019-05-12T13:43:54.797Z,41.80
2019-05-12T13:44:54.810Z,41.70
2019-05-12T13:45:57.883Z,41.60
2019-05-12T13:47:03.226Z,41.70
2019-05-12T13:48:09.578Z,41.50
2019-05-12T13:49:10.675Z,41.50
2019-05-12T13:50:21.713Z,41.50
2019-05-12T13:51:19.307Z,41.60
2019-05-12T13:52:28.529Z,41.50
2019-05-12T13:53:27.187Z,41.20
2019-05-12T13:54:30.239Z,41.00
2019-05-12T13:55:34.321Z,41.20
2019-05-12T13:56:37.376Z,40.50
2019-05-12T13:57:45.205Z,40.60
2019-05-12T13:58:46.336Z,40.30
2019-05-12T13:59:54.272Z,39.70
2019-05-12T14:01:10.522Z,39.50
2019-05-12T14:01:59.319Z,39.00
2019-05-12T14:03:08.190Z,38.90
2019-05-12T14:04:07.384Z,38.80
2019-05-12T14:05:15.071Z,38.40
2019-05-12T14:06:16.395Z,38.30
2019-05-12T14:07:20.212Z,38.50
2019-05-12T14:08:23.855Z,38.60
2019-05-12T14:09:27.415Z,38.50
2019-05-12T14:10:30.483Z,38.40
2019-05-12T14:11:34.409Z,38.10
2019-05-12T14:12:37.675Z,38.00
2019-05-12T14:13:41.421Z,37.80
2019-05-12T14:14:44.765Z,37.50
2019-05-12T14:15:47.819Z,37.40
2019-05-12T14:16:56.977Z,37.50
2019-05-12T14:17:55.587Z,37.10
2019-05-12T14:19:00.438Z,37.10
2019-05-12T14:20:09.296Z,37.40